createdAt,value
2023-08-16T00:01:58.108Z,7.10
2023-08-16T00:04:34.507Z,7.00
2023-08-16T00:07:07.059Z,9.10
2023-08-16T00:09:41.020Z,6.60
2023-08-16T00:12:16.818Z,8.20
2023-08-16T00:14:50.832Z,7.00
2023-08-16T00:17:34.935Z,5.40
2023-08-16T00:20:06.423Z,7.30
2023-08-16T00:22:38.824Z,7.20
2023-08-16T00:25:12.511Z,7.00
2023-08-16T00:28:03.550Z,8.60
2023-08-16T00:30:37.182Z,7.50
2023-08-16T00:33:13.887Z,8.10
2023-08-16T00:35:52.628Z,6.10
2023-08-16T00:38:26.346Z,7.30
2023-08-16T00:41:03.756Z,7.70
2023-08-16T00:43:36.605Z,6.90
2023-08-16T00:48:40.436Z,8.00
2023-08-16T00:51:14.374Z,7.40
2023-08-16T00:53:48.772Z,8.50
2023-08-16T00:56:22.850Z,8.40
2023-08-16T00:58:50.773Z,7.50
2023-08-16T01:01:18.624Z,8.30
2023-08-16T01:03:51.565Z,7.60
2023-08-16T01:06:24.489Z,7.20
2023-08-16T01:08:57.373Z,8.50
2023-08-16T01:14:24.340Z,7.10
2023-08-16T01:16:52.516Z,7.60
2023-08-16T01:19:33.314Z,8.40
2023-08-16T01:22:28.089Z,6.60
2023-08-16T01:28:12.975Z,9.70
2023-08-16T01:30:47.041Z,8.90
2023-08-16T01:33:15.229Z,7.20
2023-08-16T01:35:45.700Z,8.60
2023-08-16T01:38:30.254Z,8.30
2023-08-16T01:41:08.668Z,7.80
2023-08-16T01:43:36.545Z,10.30
2023-08-16T01:46:19.488Z,9.30
2023-08-16T01:48:55.529Z,9.70
2023-08-16T01:51:28.851Z,8.30
2023-08-16T01:53:56.789Z,8.50
2023-08-16T01:56:26.910Z,8.80
2023-08-16T01:59:04.212Z,8.30
2023-08-16T02:01:37.447Z,9.40
2023-08-16T02:04:05.677Z,8.70
2023-08-16T02:06:38.343Z,7.50
2023-08-16T02:09:21.370Z,7.70
2023-08-16T02:12:02.974Z,8.70
2023-08-16T02:14:38.920Z,9.70
2023-08-16T02:17:23.260Z,9.40
2023-08-16T02:19:57.384Z,10.40
2023-08-16T02:22:56.286Z,10.00
2023-08-16T02:25:30.710Z,12.10
2023-08-16T02:30:29.781Z,12.60
2023-08-16T02:32:58.931Z,9.40
2023-08-16T02:35:33.027Z,8.30
2023-08-16T02:38:00.903Z,8.80
2023-08-16T02:40:34.495Z,9.70
2023-08-16T02:43:07.803Z,11.30
2023-08-16T02:45:38.048Z,12.60
2023-08-16T02:48:10.927Z,10.30
2023-08-16T02:50:49.029Z,9.90
2023-08-16T02:53:22.837Z,10.70
2023-08-16T02:58:23.800Z,12.20
2023-08-16T03:00:58.036Z,13.00
2023-08-16T03:03:28.031Z,9.80
2023-08-16T03:06:10.930Z,13.00
2023-08-16T03:08:46.686Z,8.80
2023-08-16T03:11:17.111Z,9.30
2023-08-16T03:14:00.133Z,9.30
2023-08-16T03:16:28.960Z,10.20
2023-08-16T03:18:59.873Z,9.70
2023-08-16T03:21:28.148Z,9.00
2023-08-16T03:24:08.935Z,8.80
2023-08-16T03:26:38.543Z,10.10
2023-08-16T03:29:11.826Z,9.00
2023-08-16T03:31:47.804Z,8.80
2023-08-16T03:34:22.017Z,10.70
2023-08-16T03:36:57.745Z,11.30
2023-08-16T03:39:27.356Z,13.80
2023-08-16T03:42:02.631Z,14.30
2023-08-16T03:44:51.766Z,17.20
2023-08-16T03:47:27.051Z,15.90
2023-08-16T03:49:56.118Z,16.20
2023-08-16T03:52:24.686Z,14.00
2023-08-16T03:54:55.269Z,17.80
2023-08-16T03:57:28.102Z,15.10
2023-08-16T04:00:01.758Z,14.70
2023-08-16T04:02:30.626Z,12.50
2023-08-16T04:05:13.442Z,11.40
2023-08-16T04:07:42.920Z,13.00
2023-08-16T04:10:12.935Z,15.40
2023-08-16T04:12:43.169Z,14.20
2023-08-16T04:15:21.711Z,13.50
2023-08-16T04:17:53.572Z,13.20
2023-08-16T04:20:22.805Z,12.60
2023-08-16T04:22:56.551Z,14.50
2023-08-16T04:25:29.406Z,11.00
2023-08-16T04:28:12.558Z,12.40
2023-08-16T04:30:53.332Z,10.30
2023-08-16T04:33:21.626Z,13.60
2023-08-16T04:35:55.316Z,10.30
2023-08-16T04:38:24.835Z,11.80
2023-08-16T04:40:56.583Z,12.00
2023-08-16T04:43:24.552Z,9.70
2023-08-16T04:45:57.960Z,11.60
2023-08-16T04:48:29.256Z,11.50
2023-08-16T04:51:12.217Z,11.60
2023-08-16T04:53:40.913Z,11.20
2023-08-16T04:56:26.085Z,13.80
2023-08-16T04:58:54.972Z,10.40
2023-08-16T05:01:29.444Z,10.60
2023-08-16T05:04:05.187Z,10.70
2023-08-16T05:06:34.211Z,10.20
2023-08-16T05:09:13.267Z,11.00
2023-08-16T05:11:46.872Z,12.90
2023-08-16T05:14:15.467Z,9.90
2023-08-16T05:16:48.782Z,14.30
2023-08-16T05:19:16.827Z,11.90
2023-08-16T05:21:50.426Z,9.70
2023-08-16T05:24:27.000Z,10.70
2023-08-16T05:27:18.320Z,11.30
2023-08-16T05:29:51.425Z,8.60
2023-08-16T05:32:34.364Z,8.50
2023-08-16T05:35:16.437Z,11.20
2023-08-16T05:37:49.218Z,8.70
2023-08-16T05:40:27.936Z,8.20
2023-08-16T05:43:03.184Z,9.60
2023-08-16T05:45:38.324Z,13.90
2023-08-16T05:48:12.577Z,7.40
2023-08-16T05:51:01.290Z,8.10
2023-08-16T05:53:31.932Z,9.10
2023-08-16T05:56:05.545Z,9.20
2023-08-16T05:58:36.675Z,9.60
2023-08-16T06:01:19.247Z,9.20
2023-08-16T06:03:55.780Z,8.40
2023-08-16T06:06:26.079Z,6.10
2023-08-16T06:08:57.451Z,7.00
2023-08-16T06:11:30.322Z,7.80
2023-08-16T06:14:06.477Z,6.20
2023-08-16T06:16:42.279Z,6.60
2023-08-16T06:19:17.167Z,6.90
2023-08-16T06:21:50.462Z,7.30
2023-08-16T06:24:33.200Z,6.70
2023-08-16T06:27:05.779Z,6.80
2023-08-16T06:29:34.147Z,6.90
2023-08-16T06:32:14.467Z,5.80
2023-08-16T06:34:49.018Z,6.00
2023-08-16T06:37:17.096Z,7.20
2023-08-16T06:39:50.805Z,5.70
2023-08-16T06:42:21.126Z,6.40
2023-08-16T06:44:49.192Z,6.60
2023-08-16T06:47:31.102Z,7.00
2023-08-16T06:50:06.298Z,6.70
2023-08-16T06:52:43.744Z,5.60
2023-08-16T06:55:26.865Z,7.20
2023-08-16T06:58:01.990Z,7.90
2023-08-16T07:00:35.122Z,9.20
2023-08-16T07:03:15.186Z,6.10
2023-08-16T07:05:59.236Z,7.70
2023-08-16T07:08:34.016Z,6.70
2023-08-16T07:11:07.002Z,5.00
2023-08-16T07:13:50.948Z,6.40
2023-08-16T07:16:19.795Z,6.90
2023-08-16T07:18:53.411Z,6.40
2023-08-16T07:21:26.423Z,6.90
2023-08-16T07:23:56.977Z,9.30
2023-08-16T07:26:27.694Z,5.20
2023-08-16T07:28:55.564Z,6.40
2023-08-16T07:31:25.770Z,5.80
2023-08-16T07:34:00.829Z,7.10
2023-08-16T07:36:31.042Z,6.10
2023-08-16T07:39:06.042Z,6.60
2023-08-16T07:41:41.464Z,10.70
2023-08-16T07:44:17.481Z,8.20
2023-08-16T07:46:45.677Z,6.30
2023-08-16T07:49:18.542Z,5.80
2023-08-16T07:51:51.742Z,5.50
2023-08-16T07:54:26.064Z,4.60
2023-08-16T07:56:54.371Z,6.00
2023-08-16T07:59:40.870Z,6.40
2023-08-16T08:02:10.859Z,5.00
2023-08-16T08:04:41.489Z,5.70
2023-08-16T08:07:20.009Z,7.00
2023-08-16T08:09:48.180Z,5.80
2023-08-16T08:12:20.962Z,6.50
2023-08-16T08:14:51.085Z,4.70
2023-08-16T08:17:24.579Z,6.30
2023-08-16T08:19:53.274Z,5.10
2023-08-16T08:22:27.415Z,5.70
2023-08-16T08:25:01.549Z,3.90
2023-08-16T08:27:32.139Z,4.80
2023-08-16T08:32:33.057Z,4.30
2023-08-16T08:35:16.692Z,4.20
2023-08-16T08:37:47.686Z,4.40
2023-08-16T08:40:24.346Z,5.30
2023-08-16T08:42:57.376Z,7.10
2023-08-16T08:45:27.867Z,4.80
2023-08-16T08:50:43.465Z,5.70
2023-08-16T08:53:14.241Z,4.10
2023-08-16T08:55:42.385Z,4.40
2023-08-16T08:58:15.473Z,4.10
2023-08-16T09:00:43.847Z,4.60
2023-08-16T09:03:16.213Z,3.80
2023-08-16T09:05:47.893Z,4.50
2023-08-16T09:08:20.561Z,4.00
2023-08-16T09:11:05.038Z,4.20
2023-08-16T09:13:38.624Z,6.40
2023-08-16T09:16:21.652Z,3.70
2023-08-16T09:18:52.378Z,6.00
2023-08-16T09:21:32.548Z,5.60
2023-08-16T09:24:21.910Z,7.00
2023-08-16T09:26:55.279Z,5.00
2023-08-16T09:29:23.388Z,4.30
2023-08-16T09:31:55.377Z,4.20
2023-08-16T09:37:04.392Z,3.50
2023-08-16T09:39:39.842Z,6.60
2023-08-16T09:42:12.514Z,5.50
2023-08-16T09:44:46.319Z,4.00
2023-08-16T09:47:18.213Z,4.10
2023-08-16T09:49:53.626Z,4.70
2023-08-16T09:52:30.232Z,4.10
2023-08-16T09:55:01.546Z,3.40
2023-08-16T09:57:37.929Z,3.90
2023-08-16T10:00:11.299Z,4.40
2023-08-16T10:08:01.950Z,5.10
2023-08-16T10:10:33.300Z,3.50
2023-08-16T10:13:05.339Z,4.50
2023-08-16T10:15:36.818Z,3.30
2023-08-16T10:18:08.400Z,3.10
2023-08-16T10:20:38.300Z,4.20
2023-08-16T10:23:11.191Z,5.60
2023-08-16T10:25:53.613Z,3.20
2023-08-16T10:28:26.980Z,2.80
2023-08-16T10:33:45.843Z,4.80
2023-08-16T10:36:19.569Z,5.10
2023-08-16T10:39:00.095Z,3.10
2023-08-16T10:42:00.474Z,4.20
2023-08-16T10:44:31.321Z,3.40
2023-08-16T10:47:02.552Z,4.00
2023-08-16T10:49:42.261Z,3.90
2023-08-16T10:52:10.378Z,3.50
2023-08-16T10:54:39.806Z,4.70
2023-08-16T10:57:13.070Z,5.10
2023-08-16T10:59:46.767Z,3.60
2023-08-16T11:02:18.317Z,4.20
2023-08-16T11:04:47.658Z,4.90
2023-08-16T11:07:21.478Z,3.00
2023-08-16T11:09:50.540Z,3.50
2023-08-16T11:12:21.257Z,5.30
2023-08-16T11:14:54.563Z,3.10
2023-08-16T11:17:23.349Z,3.20
2023-08-16T11:20:06.892Z,3.20
2023-08-16T11:22:35.267Z,3.70
2023-08-16T11:25:11.242Z,3.40
2023-08-16T11:27:48.007Z,6.90
2023-08-16T11:30:23.242Z,3.80
2023-08-16T11:32:53.405Z,3.30
2023-08-16T11:35:22.421Z,3.10
2023-08-16T11:37:50.432Z,3.50
2023-08-16T11:40:27.845Z,3.10
2023-08-16T11:43:05.113Z,3.40
2023-08-16T11:45:40.674Z,3.70
2023-08-16T11:48:18.877Z,4.70
2023-08-16T11:50:52.371Z,3.80
2023-08-16T11:53:26.378Z,3.50
2023-08-16T11:56:17.600Z,3.70
2023-08-16T11:58:51.403Z,3.60
2023-08-16T12:01:23.482Z,3.90
2023-08-16T12:03:58.045Z,3.90
2023-08-16T12:06:31.085Z,3.00
2023-08-16T12:08:59.804Z,4.00
2023-08-16T12:11:47.219Z,3.90
2023-08-16T12:14:20.136Z,4.00
2023-08-16T12:16:48.376Z,5.20
2023-08-16T12:19:29.199Z,4.80
2023-08-16T12:22:02.242Z,4.60
2023-08-16T12:24:38.292Z,3.40
2023-08-16T12:27:36.212Z,4.20
2023-08-16T12:30:14.373Z,3.50
2023-08-16T12:32:56.111Z,4.00
2023-08-16T12:35:26.694Z,3.70
2023-08-16T12:38:00.614Z,3.30
2023-08-16T12:40:35.950Z,6.90
2023-08-16T12:43:11.848Z,4.50
2023-08-16T12:45:52.406Z,4.10
2023-08-16T12:48:21.313Z,9.80
2023-08-16T12:51:03.805Z,4.80
2023-08-16T12:53:47.204Z,5.10
2023-08-16T12:56:20.392Z,4.20
2023-08-16T13:01:24.520Z,3.80
2023-08-16T13:06:52.585Z,4.70
2023-08-16T13:09:28.430Z,5.20
2023-08-16T13:12:08.896Z,4.30
2023-08-16T13:14:46.420Z,3.20
2023-08-16T13:17:25.214Z,5.30
2023-08-16T13:27:43.338Z,3.70
2023-08-16T13:33:29.692Z,4.20
2023-08-16T13:36:05.020Z,4.90
2023-08-16T13:38:48.595Z,4.20
2023-08-16T13:41:24.888Z,4.00
2023-08-16T13:44:44.684Z,4.30
2023-08-16T13:46:54.866Z,4.80
2023-08-16T13:49:55.501Z,4.10
2023-08-16T13:52:31.567Z,5.10
2023-08-16T13:55:01.717Z,4.00
2023-08-16T13:57:34.989Z,5.00
2023-08-16T14:00:06.023Z,4.20
2023-08-16T14:02:44.798Z,3.40
2023-08-16T14:05:19.711Z,4.50
2023-08-16T14:07:48.362Z,4.10
2023-08-16T14:10:16.232Z,4.40
2023-08-16T14:12:47.385Z,4.00
2023-08-16T14:15:23.435Z,4.70
2023-08-16T14:17:56.373Z,4.20
2023-08-16T14:20:34.653Z,3.90
2023-08-16T14:23:07.635Z,3.40
2023-08-16T14:25:50.970Z,3.60
2023-08-16T14:28:31.334Z,6.00
2023-08-16T14:31:05.042Z,3.60
2023-08-16T14:33:33.213Z,4.40
2023-08-16T14:36:05.671Z,3.80
2023-08-16T14:38:37.658Z,5.00
2023-08-16T14:41:11.034Z,4.00
2023-08-16T14:43:41.981Z,5.70
2023-08-16T14:46:12.966Z,6.40
2023-08-16T14:48:45.697Z,4.20
2023-08-16T14:51:29.131Z,5.40
2023-08-16T14:53:58.315Z,5.70
2023-08-16T14:56:33.571Z,6.50
2023-08-16T14:59:07.518Z,4.80
2023-08-16T15:01:36.825Z,9.70
2023-08-16T15:04:07.944Z,5.70
2023-08-16T15:06:36.205Z,5.60
2023-08-16T15:09:07.354Z,5.00
2023-08-16T15:11:38.085Z,7.50
2023-08-16T15:14:20.088Z,5.40
2023-08-16T15:16:54.119Z,5.70
2023-08-16T15:19:26.991Z,5.60
2023-08-16T15:21:57.306Z,5.20
2023-08-16T15:24:34.405Z,4.50
2023-08-16T15:27:07.074Z,5.10
2023-08-16T15:29:42.220Z,6.90
2023-08-16T15:32:17.864Z,4.70
2023-08-16T15:34:51.058Z,5.00
2023-08-16T15:37:21.174Z,5.40
2023-08-16T15:40:08.508Z,6.30
2023-08-16T15:42:36.673Z,8.50
2023-08-16T15:45:09.680Z,5.20
2023-08-16T15:47:52.020Z,5.30
2023-08-16T15:50:34.406Z,6.30
2023-08-16T15:53:07.477Z,4.80
2023-08-16T15:55:48.869Z,6.00
2023-08-16T15:58:18.970Z,4.40
2023-08-16T16:03:23.425Z,6.40
2023-08-16T16:05:56.499Z,6.90
2023-08-16T16:08:32.571Z,5.80
2023-08-16T16:11:06.273Z,4.50
2023-08-16T16:13:42.446Z,5.30
2023-08-16T16:16:10.956Z,6.40
2023-08-16T16:18:44.107Z,6.20
2023-08-16T16:21:16.999Z,6.00
2023-08-16T16:23:50.203Z,7.40
2023-08-16T16:26:19.282Z,6.30
2023-08-16T16:28:57.183Z,7.10
2023-08-16T16:31:31.190Z,5.30
2023-08-16T16:34:07.528Z,6.10
2023-08-16T16:36:49.465Z,8.60
2023-08-16T16:39:22.660Z,10.00
2023-08-16T16:41:50.543Z,6.50
2023-08-16T16:44:21.593Z,9.30
2023-08-16T16:47:09.008Z,6.20
2023-08-16T16:49:42.511Z,7.60
2023-08-16T16:52:13.257Z,6.00
2023-08-16T16:54:56.568Z,6.60
2023-08-16T16:57:32.734Z,6.90
2023-08-16T17:00:16.389Z,6.20
2023-08-16T17:02:44.539Z,8.40
2023-08-16T17:05:17.934Z,9.00
2023-08-16T17:07:49.400Z,9.90
2023-08-16T17:10:17.885Z,6.40
2023-08-16T17:12:48.912Z,9.10
2023-08-16T17:15:22.431Z,7.90
2023-08-16T17:18:05.863Z,8.50
2023-08-16T17:20:39.140Z,9.00
2023-08-16T17:23:18.273Z,8.90
2023-08-16T17:25:52.494Z,6.70
2023-08-16T17:28:23.020Z,6.80
2023-08-16T17:30:58.909Z,6.50
2023-08-16T17:33:32.374Z,8.80
2023-08-16T17:36:03.023Z,7.30
2023-08-16T17:38:34.679Z,6.80
2023-08-16T17:41:03.656Z,6.70
2023-08-16T17:43:37.365Z,6.50
2023-08-16T17:46:24.215Z,8.70
2023-08-16T17:48:56.725Z,8.70
2023-08-16T17:51:29.639Z,7.20
2023-08-16T17:54:02.423Z,8.50
2023-08-16T17:56:35.107Z,6.90
2023-08-16T17:59:04.612Z,9.00
2023-08-16T18:01:33.604Z,5.90
2023-08-16T18:04:20.219Z,8.50
2023-08-16T18:06:55.248Z,9.30
2023-08-16T18:09:25.374Z,9.70
2023-08-16T18:12:10.151Z,7.90
2023-08-16T18:14:38.107Z,8.40
2023-08-16T18:17:10.901Z,11.20
2023-08-16T18:19:53.609Z,7.80
2023-08-16T18:22:29.564Z,11.50
2023-08-16T18:25:08.200Z,11.20
2023-08-16T18:27:44.469Z,8.90
2023-08-16T18:30:13.646Z,9.40
2023-08-16T18:32:44.947Z,12.10
2023-08-16T18:35:13.070Z,10.40
2023-08-16T18:37:44.121Z,9.80
2023-08-16T18:40:19.677Z,9.90
2023-08-16T18:42:52.853Z,10.70
2023-08-16T18:45:24.696Z,9.70
2023-08-16T18:47:54.821Z,9.20
2023-08-16T18:50:25.057Z,9.80
2023-08-16T18:52:53.790Z,13.50
2023-08-16T18:55:21.936Z,11.70
2023-08-16T18:57:51.444Z,9.60
2023-08-16T19:00:22.525Z,12.40
2023-08-16T19:02:50.949Z,12.70
2023-08-16T19:05:21.514Z,12.60
2023-08-16T19:08:23.459Z,11.90
2023-08-16T19:10:56.751Z,14.30
2023-08-16T19:13:29.539Z,16.90
2023-08-16T19:16:02.638Z,12.70
2023-08-16T19:18:41.649Z,13.40
2023-08-16T19:21:09.729Z,11.90
2023-08-16T19:23:43.432Z,12.50
2023-08-16T19:26:17.449Z,14.20
2023-08-16T19:28:57.056Z,13.20
2023-08-16T19:31:30.701Z,8.90
2023-08-16T19:34:02.291Z,11.30
2023-08-16T19:36:32.673Z,11.40
2023-08-16T19:39:00.649Z,13.80
2023-08-16T19:41:41.113Z,11.90
2023-08-16T19:44:10.009Z,11.20
2023-08-16T19:46:38.849Z,11.30
2023-08-16T19:49:06.762Z,12.60
2023-08-16T19:51:43.884Z,12.00
2023-08-16T19:54:19.234Z,10.00
2023-08-16T19:56:53.020Z,11.60
2023-08-16T19:59:27.818Z,10.20
2023-08-16T20:01:58.778Z,7.90
2023-08-16T20:04:26.732Z,14.60
2023-08-16T20:07:00.036Z,11.20
2023-08-16T20:09:33.933Z,12.30
2023-08-16T20:12:01.805Z,8.90
2023-08-16T20:14:54.965Z,9.70
2023-08-16T20:17:25.347Z,11.60
2023-08-16T20:19:55.419Z,11.40
2023-08-16T20:22:23.386Z,10.20
2023-08-16T20:24:54.491Z,12.10
2023-08-16T20:27:28.489Z,11.50
2023-08-16T20:29:56.827Z,10.70
2023-08-16T20:32:25.204Z,12.80
2023-08-16T20:35:01.003Z,9.40
2023-08-16T20:40:09.440Z,13.20
2023-08-16T20:42:39.510Z,9.20
2023-08-16T20:45:11.658Z,10.70
2023-08-16T20:47:41.211Z,10.30
2023-08-16T20:50:10.720Z,9.40
2023-08-16T20:52:44.225Z,12.90
2023-08-16T20:55:20.295Z,10.10
2023-08-16T20:57:56.822Z,10.10
2023-08-16T21:00:24.811Z,11.70
2023-08-16T21:02:58.019Z,11.00
2023-08-16T21:07:59.671Z,12.20
2023-08-16T21:10:38.491Z,10.10
2023-08-16T21:13:06.865Z,11.90
2023-08-16T21:15:34.977Z,10.30
2023-08-16T21:18:05.110Z,10.50
2023-08-16T21:20:35.296Z,9.30
2023-08-16T21:23:10.423Z,9.60
2023-08-16T21:25:43.612Z,13.30
2023-08-16T21:28:16.398Z,9.10
2023-08-16T21:30:45.288Z,10.10
2023-08-16T21:33:29.238Z,11.00
2023-08-16T21:35:59.028Z,9.10
2023-08-16T21:38:27.937Z,9.60
2023-08-16T21:41:01.341Z,7.40
2023-08-16T21:43:35.040Z,9.50
2023-08-16T21:46:05.277Z,8.80
2023-08-16T21:48:38.367Z,10.30
2023-08-16T21:51:08.812Z,8.20
2023-08-16T21:53:39.010Z,10.40
2023-08-16T21:56:09.023Z,7.50
2023-08-16T21:58:37.411Z,10.50
2023-08-16T22:01:14.397Z,9.10
2023-08-16T22:03:46.218Z,7.80
2023-08-16T22:06:21.817Z,7.30
2023-08-16T22:08:56.116Z,7.00
2023-08-16T22:11:28.910Z,9.50
2023-08-16T22:13:56.870Z,11.00
2023-08-16T22:16:30.816Z,12.70
2023-08-16T22:19:00.205Z,8.80
2023-08-16T22:21:31.443Z,11.00
2023-08-16T22:23:59.517Z,7.80
2023-08-16T22:26:35.109Z,8.40
2023-08-16T22:29:08.152Z,11.70
2023-08-16T22:34:09.100Z,9.80
2023-08-16T22:36:49.457Z,9.80
2023-08-16T22:39:17.441Z,8.40
2023-08-16T22:41:57.589Z,7.50
2023-08-16T22:44:28.430Z,8.50
2023-08-16T22:46:56.553Z,8.20
2023-08-16T22:49:31.751Z,9.00
2023-08-16T22:55:03.648Z,6.60
2023-08-16T22:57:32.719Z,7.90
2023-08-16T23:00:02.435Z,8.20
2023-08-16T23:02:30.424Z,7.80
2023-08-16T23:05:05.241Z,8.30
2023-08-16T23:07:41.196Z,10.30
2023-08-16T23:10:14.901Z,6.90
2023-08-16T23:12:48.519Z,9.80
2023-08-16T23:15:16.696Z,8.80
2023-08-16T23:18:10.210Z,10.00
2023-08-16T23:20:50.607Z,6.60
2023-08-16T23:23:23.601Z,7.50
2023-08-16T23:25:53.738Z,10.20
2023-08-16T23:28:29.062Z,8.80
2023-08-16T23:30:57.334Z,8.10
2023-08-16T23:33:27.971Z,8.00
2023-08-16T23:36:03.322Z,8.00
2023-08-16T23:38:33.114Z,8.40
2023-08-16T23:41:02.024Z,7.60
2023-08-16T23:43:35.206Z,9.60
2023-08-16T23:46:08.146Z,8.40
2023-08-16T23:48:50.108Z,10.00
2023-08-16T23:51:23.423Z,9.70
2023-08-16T23:53:52.305Z,8.60
2023-08-16T23:56:25.995Z,8.30
2023-08-16T23:58:53.961Z,9.60
